Time;durP1;ratioP1;P1;durP2;ratioP2;P2;SDS_P1;SDS_P2;PMS_P1;PMS_P2;Temp;Humidity;BMP_temperature;BMP_pressure;BME280_temperature;BME280_humidity;BME280_pressure;Samples;Min_cycle;Max_cycle;Signal;HPM_P1;HPM_P2
2023/02/14 00:01:41;;;;;;;25.67;15.00;;;;;;;3.71;57.10;96037.38;4245500;27;20433;-51
2023/02/14 00:03:43;;;;;;;21.30;13.48;;;;;;;3.76;56.87;96033.59;4232965;28;20047;-55
2023/02/14 00:05:44;;;;;;;26.65;15.85;;;;;;;3.68;56.96;96044.41;4241348;28;20054;-54
2023/02/14 00:07:46;;;;;;;21.90;14.07;;;;;;;3.63;57.41;96030.84;4245907;27;20387;-52
2023/02/14 00:09:47;;;;;;;23.60;14.98;;;;;;;3.62;57.29;96029.19;4245040;27;20051;-53
2023/02/14 00:11:49;;;;;;;23.02;15.32;;;;;;;3.62;57.53;96036.16;4245669;27;20047;-58
2023/02/14 00:16:11;;;;;;;21.55;14.60;;;;;;;3.62;57.26;96034.38;4248688;27;20039;-54
2023/02/14 00:18:13;;;;;;;27.02;15.95;;;;;;;3.58;57.28;96042.41;4248039;27;20051;-55
2023/02/14 00:20:14;;;;;;;25.35;15.35;;;;;;;3.63;57.79;96035.22;4233189;27;20048;-55
2023/02/14 00:22:16;;;;;;;22.35;14.25;;;;;;;3.53;57.82;96044.41;4235647;27;20076;-55
2023/02/14 00:24:23;;;;;;;24.38;15.13;;;;;;;3.61;57.47;96043.06;4248612;27;20418;-55
2023/02/14 00:26:25;;;;;;;24.48;14.82;;;;;;;3.50;57.92;96055.75;4248817;27;20487;-53
2023/02/14 00:28:26;;;;;;;23.20;13.85;;;;;;;3.58;57.81;96048.41;4247440;27;20403;-53
2023/02/14 00:30:28;;;;;;;23.35;14.77;;;;;;;3.48;58.44;96040.31;4253440;27;20572;-51
2023/02/14 00:32:30;;;;;;;26.23;15.85;;;;;;;3.54;58.37;96044.31;4239002;27;20048;-53
2023/02/14 00:34:35;;;;;;;24.10;14.88;;;;;;;3.57;58.01;96044.16;4240581;27;20453;-54
2023/02/14 00:36:37;;;;;;;24.55;15.43;;;;;;;3.51;58.61;96033.28;4237219;27;20483;-54
2023/02/14 00:38:39;;;;;;;26.70;16.05;;;;;;;3.50;58.66;96029.84;4235841;27;20047;-60
2023/02/14 00:40:40;;;;;;;22.05;15.40;;;;;;;3.57;58.71;96038.13;4248075;27;20087;-51
2023/02/14 00:42:42;;;;;;;23.20;15.48;;;;;;;3.67;58.27;96041.91;4237347;27;20048;-56
2023/02/14 00:44:44;;;;;;;26.75;16.02;;;;;;;3.72;58.35;96031.28;4238186;27;20043;-52
2023/02/14 00:46:45;;;;;;;25.77;15.43;;;;;;;3.72;58.72;96031.28;4244542;27;20047;-55
2023/02/14 00:48:47;;;;;;;26.02;16.77;;;;;;;3.63;58.26;96041.22;4241791;27;20047;-57
2023/02/14 00:50:48;;;;;;;23.42;15.02;;;;;;;3.56;58.32;96045.06;4237257;27;20083;-56
2023/02/14 00:52:50;;;;;;;25.15;16.10;;;;;;;3.57;58.58;96036.41;4234567;27;20078;-52
2023/02/14 00:54:52;;;;;;;26.50;15.10;;;;;;;3.52;58.75;96025.44;4243736;27;20418;-54
2023/02/14 00:56:53;;;;;;;23.67;15.38;;;;;;;3.50;58.99;96027.25;4234181;27;20101;-52
2023/02/14 00:58:55;;;;;;;24.08;15.73;;;;;;;3.50;58.74;96032.44;4234171;27;20453;-54
2023/02/14 01:00:57;;;;;;;27.88;16.63;;;;;;;3.58;58.36;96014.72;4245333;27;20055;-52
2023/02/14 01:02:59;;;;;;;23.88;15.63;;;;;;;3.57;58.29;96013.06;4245828;27;20043;-50
2023/02/14 01:05:01;;;;;;;23.33;15.45;;;;;;;3.49;59.02;96018.66;4247237;27;20083;-52
2023/02/14 01:07:02;;;;;;;24.38;15.68;;;;;;;3.53;58.79;96005.53;4236161;27;20052;-54
2023/02/14 01:09:04;;;;;;;25.45;15.85;;;;;;;3.35;58.91;96012.56;4246785;27;20126;-55
2023/02/14 01:11:16;;;;;;;25.08;15.80;;;;;;;3.45;58.88;96013.75;4238566;27;20043;-54
2023/02/14 01:13:19;;;;;;;23.58;15.65;;;;;;;3.56;58.26;96007.97;4235606;27;20118;-57
2023/02/14 01:15:21;;;;;;;25.42;16.60;;;;;;;3.53;58.40;96014.16;4234501;27;20047;-54
2023/02/14 01:17:22;;;;;;;27.90;16.08;;;;;;;3.49;58.59;96010.88;4243538;27;20112;-55
2023/02/14 01:19:24;;;;;;;27.90;16.77;;;;;;;3.49;58.60;96013.47;4241768;27;20082;-54
2023/02/14 01:21:28;;;;;;;28.40;17.02;;;;;;;3.55;58.58;96009.72;4236481;27;20044;-53
2023/02/14 01:23:30;;;;;;;24.48;15.63;;;;;;;3.59;58.69;96002.59;4236099;27;20049;-52
2023/02/14 01:25:32;;;;;;;25.65;16.95;;;;;;;3.55;58.73;96001.97;4247552;27;20043;-54
2023/02/14 01:27:34;;;;;;;27.52;15.30;;;;;;;3.48;58.56;96009.22;4235624;27;20047;-55
2023/02/14 01:29:35;;;;;;;25.58;15.45;;;;;;;3.42;58.49;96003.53;4248568;27;20039;-55
2023/02/14 01:31:37;;;;;;;25.17;16.42;;;;;;;3.45;59.06;95995.59;4256645;27;20100;-53
2023/02/14 01:33:40;;;;;;;25.10;15.68;;;;;;;3.49;58.91;95994.53;4247259;27;20062;-53
2023/02/14 01:35:42;;;;;;;27.00;17.25;;;;;;;3.52;58.82;95989.16;4233272;27;20143;-54
2023/02/14 01:37:43;;;;;;;26.55;17.13;;;;;;;3.59;58.82;95987.91;4242339;27;20047;-56
2023/02/14 01:39:45;;;;;;;24.48;17.08;;;;;;;3.61;58.21;95987.81;4239316;27;20479;-57
2023/02/14 01:41:47;;;;;;;24.90;16.60;;;;;;;3.56;58.20;95975.13;4242720;27;20142;-54
2023/02/14 01:44:00;;;;;;;24.98;15.68;;;;;;;3.56;58.53;95963.91;4230333;28;20052;-54
2023/02/14 01:46:02;;;;;;;24.33;15.85;;;;;;;3.56;58.41;95969.94;4247055;27;20061;-55
2023/02/14 01:48:04;;;;;;;28.38;16.92;;;;;;;3.48;58.22;95972.97;4246510;27;20051;-55
2023/02/14 01:50:30;;;;;;;29.27;17.48;;;;;;;3.57;58.63;95961.25;4243638;27;20479;-54
2023/02/14 01:52:40;;;;;;;26.77;16.73;;;;;;;3.52;58.35;95958.06;4234535;27;20047;-55
2023/02/14 01:54:50;;;;;;;23.00;15.50;;;;;;;3.58;58.66;95956.91;4241001;27;20101;-59
2023/02/14 01:56:59;;;;;;;23.95;16.73;;;;;;;3.64;58.29;95951.38;4245344;27;20046;-59
2023/02/14 01:59:01;;;;;;;25.58;16.67;;;;;;;3.62;57.89;95967.00;4240374;27;20051;-58
2023/02/14 02:01:04;;;;;;;25.33;16.48;;;;;;;3.52;58.29;95962.41;4237145;27;20085;-55
2023/02/14 02:03:07;;;;;;;29.90;16.67;;;;;;;3.49;58.62;95960.84;4238602;27;20047;-56
2023/02/14 02:05:09;;;;;;;30.27;17.45;;;;;;;3.52;58.43;95957.25;4245283;27;20078;-57
2023/02/14 02:07:15;;;;;;;25.70;16.35;;;;;;;3.51;58.27;95956.41;4240357;27;20039;-59
2023/02/14 02:09:23;;;;;;;26.00;16.38;;;;;;;3.51;58.38;95960.72;4240309;27;20040;-57
2023/02/14 02:11:25;;;;;;;25.20;16.25;;;;;;;3.51;57.87;95977.13;4239067;27;20054;-59
2023/02/14 02:13:27;;;;;;;27.15;17.52;;;;;;;3.36;58.90;95965.03;4238615;27;20058;-57
2023/02/14 02:15:31;;;;;;;26.40;17.45;;;;;;;3.37;58.95;95954.56;4240412;27;20100;-58
2023/02/14 02:17:35;;;;;;;24.35;16.75;;;;;;;3.47;58.21;95966.09;4235466;27;20051;-58
2023/02/14 02:20:15;;;;;;;28.40;16.73;;;;;;;3.50;58.28;95959.91;4239892;27;20096;-58
2023/02/14 02:22:34;;;;;;;27.10;17.77;;;;;;;3.53;58.65;95954.56;4230968;27;20040;-58
2023/02/14 02:24:48;;;;;;;24.40;16.08;;;;;;;3.53;57.88;95967.53;4235008;27;20061;-59
2023/02/14 02:27:15;;;;;;;27.17;17.98;;;;;;;3.51;58.31;95955.56;4243767;27;20069;-59
2023/02/14 02:29:32;;;;;;;26.95;17.67;;;;;;;3.45;58.11;95948.97;4244503;27;20495;-59
2023/02/14 02:31:43;;;;;;;27.17;17.70;;;;;;;3.38;58.62;95935.53;4231215;27;20435;-60
2023/02/14 02:34:08;;;;;;;26.83;17.02;;;;;;;3.42;58.07;95952.56;4234786;27;20542;-58
2023/02/14 02:36:16;;;;;;;27.95;17.17;;;;;;;3.54;58.61;95934.66;4235178;27;20057;-58
2023/02/14 02:38:35;;;;;;;26.98;16.27;;;;;;;3.51;58.38;95925.31;4232818;27;20043;-59
2023/02/14 02:40:39;;;;;;;31.17;18.08;;;;;;;3.51;58.38;95917.53;4239247;27;20051;-58
2023/02/14 02:42:46;;;;;;;25.20;16.77;;;;;;;3.54;58.40;95916.53;4242326;27;20051;-57
2023/02/14 02:45:00;;;;;;;28.58;17.92;;;;;;;3.50;57.74;95923.63;4246864;27;20399;-58
2023/02/14 02:47:05;;;;;;;28.80;17.23;;;;;;;3.56;57.86;95915.53;4245036;27;20058;-60
2023/02/14 02:54:28;;;;;;;23.52;15.93;;;;;;;3.41;58.43;95916.38;4239093;27;20100;-59
2023/02/14 02:56:46;;;;;;;26.08;16.40;;;;;;;3.39;58.20;95923.41;4246057;27;20490;-58
2023/02/14 02:58:51;;;;;;;27.05;16.85;;;;;;;3.48;58.28;95936.69;4242612;27;20043;-58
2023/02/14 03:00:54;;;;;;;27.35;16.90;;;;;;;3.53;57.98;95931.25;4236841;27;20103;-55
2023/02/14 03:05:18;;;;;;;25.63;16.40;;;;;;;3.46;58.27;95928.16;4241723;27;20135;-57
2023/02/14 03:07:33;;;;;;;26.55;17.38;;;;;;;3.45;58.18;95921.31;4232622;27;20482;-58
2023/02/14 03:09:40;;;;;;;29.05;16.92;;;;;;;3.52;57.98;95926.16;4244620;27;20047;-59
2023/02/14 03:12:08;;;;;;;27.02;17.30;;;;;;;3.55;58.30;95925.97;4244486;27;20513;-59
2023/02/14 03:14:32;;;;;;;26.08;16.33;;;;;;;3.54;58.02;95929.50;4245925;27;20047;-64
2023/02/14 03:16:40;;;;;;;28.23;16.52;;;;;;;3.55;58.53;95919.03;4244681;27;20062;-58
2023/02/14 03:21:40;;;;;;;24.23;15.60;;;;;;;3.45;58.42;95915.28;4241784;27;20311;-58
2023/02/14 03:24:07;;;;;;;25.60;15.57;;;;;;;3.34;58.73;95915.06;4228518;27;20055;-59
2023/02/14 03:26:39;;;;;;;23.67;15.55;;;;;;;3.24;58.43;95907.78;4244216;28;20412;-57
2023/02/14 03:29:00;;;;;;;26.67;15.02;;;;;;;3.28;58.57;95898.09;4233964;27;20149;-58
2023/02/14 03:31:21;;;;;;;26.42;16.27;;;;;;;3.38;58.70;95888.06;4243780;28;20063;-59
2023/02/14 03:33:28;;;;;;;30.50;16.95;;;;;;;3.38;58.22;95888.91;4243804;28;20526;-59
2023/02/14 03:35:30;;;;;;;25.08;15.00;;;;;;;3.17;58.65;95888.34;4243972;28;20083;-59
2023/02/14 03:37:38;;;;;;;24.38;14.40;;;;;;;3.22;58.61;95890.66;4245623;28;20050;-58
2023/02/14 03:39:58;;;;;;;26.17;14.23;;;;;;;3.18;58.52;95899.53;4242369;27;20051;-58
2023/02/14 03:42:11;;;;;;;28.52;15.68;;;;;;;3.06;58.71;95904.47;4238102;28;20059;-58
2023/02/14 03:44:17;;;;;;;25.35;14.73;;;;;;;3.15;59.13;95903.13;4244706;28;20556;-57
2023/02/14 03:46:27;;;;;;;20.80;15.00;;;;;;;3.19;58.95;95899.44;4243255;27;20039;-61
2023/02/14 03:48:29;;;;;;;27.95;15.82;;;;;;;3.20;58.61;95889.91;4236187;27;20047;-59
2023/02/14 03:50:32;;;;;;;25.75;16.17;;;;;;;3.30;58.36;95901.44;4231707;27;20124;-59
2023/02/14 03:52:35;;;;;;;28.08;16.20;;;;;;;3.30;58.31;95892.84;4231200;27;20069;-60
2023/02/14 03:54:37;;;;;;;25.97;14.90;;;;;;;3.24;58.40;95888.81;4239730;27;20058;-59
2023/02/14 03:56:48;;;;;;;22.40;14.07;;;;;;;3.27;58.33;95891.25;4247989;27;20073;-59
2023/02/14 03:58:53;;;;;;;25.58;15.25;;;;;;;3.31;58.31;95884.13;4233600;27;20451;-58
2023/02/14 04:01:00;;;;;;;20.95;13.88;;;;;;;3.14;58.64;95874.72;4247297;27;20486;-61
2023/02/14 04:03:08;;;;;;;23.08;15.50;;;;;;;3.09;59.22;95872.38;4246596;27;20135;-57
2023/02/14 04:05:16;;;;;;;22.35;14.68;;;;;;;3.18;58.82;95866.69;4241935;27;20070;-58
2023/02/14 04:07:20;;;;;;;24.00;13.60;;;;;;;3.20;58.69;95869.19;4230163;28;20106;-60
2023/02/14 04:09:22;;;;;;;24.67;15.10;;;;;;;3.20;58.28;95871.78;4242654;27;20668;-59
2023/02/14 04:11:23;;;;;;;22.02;13.90;;;;;;;3.18;58.85;95871.03;4248321;27;20055;-57
2023/02/14 04:13:25;;;;;;;23.73;14.50;;;;;;;3.24;58.37;95863.75;4230227;28;20050;-56
2023/02/14 04:15:27;;;;;;;23.38;13.98;;;;;;;3.20;58.16;95875.19;4231682;27;20051;-58
2023/02/14 04:19:48;;;;;;;20.05;13.82;;;;;;;3.15;58.38;95866.88;4231964;27;20126;-58
2023/02/14 04:21:51;;;;;;;23.67;13.63;;;;;;;3.14;58.39;95875.56;4237448;27;20054;-57
2023/02/14 04:23:52;;;;;;;24.17;14.07;;;;;;;3.12;58.23;95880.00;4248690;27;20050;-59
2023/02/14 04:25:54;;;;;;;20.60;13.57;;;;;;;3.10;58.43;95871.47;4248843;27;20457;-58
2023/02/14 04:27:56;;;;;;;19.63;13.25;;;;;;;3.12;58.20;95871.38;4246801;27;20112;-59
2023/02/14 04:29:57;;;;;;;25.02;14.18;;;;;;;3.13;58.45;95876.47;4242849;27;20426;-59
2023/02/14 04:31:59;;;;;;;25.15;14.05;;;;;;;3.10;58.43;95878.38;4242430;27;20051;-59
2023/02/14 04:34:01;;;;;;;22.77;13.95;;;;;;;3.13;58.44;95871.28;4246382;27;20051;-62
2023/02/14 04:36:03;;;;;;;22.40;13.80;;;;;;;3.22;58.25;95867.34;4235523;27;20043;-58
2023/02/14 04:38:05;;;;;;;24.27;13.80;;;;;;;3.20;58.24;95871.78;4242068;27;20472;-60
2023/02/14 04:40:08;;;;;;;23.77;13.05;;;;;;;3.20;57.81;95869.19;4234576;27;20548;-58
2023/02/14 04:42:09;;;;;;;26.05;14.35;;;;;;;3.11;58.33;95874.91;4243392;27;20507;-60
2023/02/14 04:44:11;;;;;;;20.23;13.57;;;;;;;3.15;57.94;95873.81;4245904;27;20062;-58
2023/02/14 04:46:13;;;;;;;22.63;13.55;;;;;;;3.10;58.41;95850.75;4231571;27;20077;-59
2023/02/14 04:48:15;;;;;;;20.83;13.15;;;;;;;3.09;58.45;95851.66;4230731;28;20105;-59
2023/02/14 04:50:16;;;;;;;20.05;12.18;;;;;;;3.10;58.14;95850.75;4243039;27;20047;-56
2023/02/14 04:52:18;;;;;;;21.95;13.77;;;;;;;3.08;58.06;95843.06;4246643;27;20627;-57
2023/02/14 04:54:19;;;;;;;24.60;13.48;;;;;;;3.01;58.38;95846.06;4244189;27;20048;-59
2023/02/14 04:56:21;;;;;;;21.30;12.68;;;;;;;3.08;58.28;95853.44;4244991;27;20062;-59
2023/02/14 04:58:23;;;;;;;20.15;13.07;;;;;;;3.12;58.21;95851.50;4245367;27;20043;-59
2023/02/14 05:00:24;;;;;;;22.08;12.68;;;;;;;3.14;57.86;95849.69;4244549;27;20055;-59
2023/02/14 05:02:26;;;;;;;19.77;12.88;;;;;;;3.08;58.05;95842.25;4245171;27;20222;-59
2023/02/14 05:04:28;;;;;;;21.60;13.10;;;;;;;3.12;58.50;95848.94;4246447;27;20047;-61
2023/02/14 05:06:30;;;;;;;18.90;12.48;;;;;;;3.13;58.02;95857.53;4247848;27;20058;-60
2023/02/14 05:08:31;;;;;;;22.38;12.43;;;;;;;3.16;57.57;95852.16;4244221;27;20055;-60
2023/02/14 05:10:33;;;;;;;20.63;13.20;;;;;;;3.21;57.98;95853.59;4246645;27;20058;-56
2023/02/14 05:12:34;;;;;;;21.15;11.57;;;;;;;3.21;57.84;95851.00;4247611;27;20095;-55
2023/02/14 05:14:36;;;;;;;22.15;11.90;;;;;;;3.26;57.42;95848.97;4248100;27;20814;-60
2023/02/14 05:16:38;;;;;;;21.13;11.85;;;;;;;3.23;57.63;95854.34;4245459;27;20047;-55
2023/02/14 05:18:39;;;;;;;21.15;12.32;;;;;;;3.10;57.47;95861.13;4247741;27;20053;-53
2023/02/14 05:20:41;;;;;;;20.30;12.55;;;;;;;3.11;57.99;95855.00;4246258;27;20411;-60
2023/02/14 05:22:43;;;;;;;20.38;12.57;;;;;;;3.18;57.66;95860.69;4243348;27;20139;-58
2023/02/14 05:24:44;;;;;;;21.40;13.05;;;;;;;3.18;57.89;95852.91;4246911;27;20047;-57
2023/02/14 05:26:46;;;;;;;19.52;12.23;;;;;;;3.27;57.43;95842.88;4247993;27;20502;-55
2023/02/14 05:28:48;;;;;;;20.13;12.77;;;;;;;3.19;57.50;95850.25;4237184;27;20055;-57
2023/02/14 05:30:50;;;;;;;20.92;12.85;;;;;;;3.20;57.57;95849.31;4244790;27;20048;-59
2023/02/14 05:32:52;;;;;;;17.77;11.77;;;;;;;3.23;57.71;95854.34;4230360;28;20109;-58
2023/02/14 05:34:54;;;;;;;21.30;13.48;;;;;;;3.17;57.71;95844.31;4238876;27;20065;-59
2023/02/14 05:36:56;;;;;;;18.17;12.20;;;;;;;3.19;57.97;95847.66;4247473;27;20074;-61
2023/02/14 05:38:58;;;;;;;24.33;13.10;;;;;;;3.23;57.47;95846.56;4245808;27;20361;-60
2023/02/14 05:41:00;;;;;;;21.27;12.80;;;;;;;3.32;57.76;95845.22;4237107;27;20107;-61
2023/02/14 05:43:02;;;;;;;23.80;13.55;;;;;;;3.34;57.47;95843.38;4244884;27;20047;-59
2023/02/14 05:45:05;;;;;;;20.33;13.40;;;;;;;3.34;57.87;95839.94;4247867;27;20100;-60
2023/02/14 05:47:06;;;;;;;24.17;13.43;;;;;;;3.33;57.54;95840.84;4246864;27;20051;-61
2023/02/14 05:49:08;;;;;;;19.02;13.07;;;;;;;3.31;57.71;95840.09;4234415;27;20058;-61
2023/02/14 05:51:10;;;;;;;22.20;13.20;;;;;;;3.32;58.05;95842.63;4245921;27;20712;-62
2023/02/14 05:53:13;;;;;;;19.23;12.98;;;;;;;3.37;57.67;95847.53;4247708;27;20043;-63
2023/02/14 05:55:15;;;;;;;19.10;12.63;;;;;;;3.35;57.62;95842.44;4234511;27;20051;-62
2023/02/14 05:57:16;;;;;;;20.02;12.88;;;;;;;3.29;58.12;95840.19;4233955;27;20043;-60
2023/02/14 05:59:18;;;;;;;20.52;12.75;;;;;;;3.30;57.82;95839.28;4247594;27;20043;-61
2023/02/14 06:01:20;;;;;;;19.38;12.75;;;;;;;3.34;57.49;95845.97;4247533;27;20078;-59
2023/02/14 06:03:23;;;;;;;22.30;14.63;;;;;;;3.30;57.54;95835.88;4240462;27;20089;-60
2023/02/14 06:05:25;;;;;;;27.17;14.05;;;;;;;3.46;57.27;95831.47;4241253;27;20423;-62
2023/02/14 06:07:27;;;;;;;21.38;13.00;;;;;;;3.55;57.19;95838.72;4242374;27;20391;-61
2023/02/14 06:09:29;;;;;;;23.40;14.23;;;;;;;3.49;57.29;95844.25;4241167;27;20121;-61
2023/02/14 06:11:30;;;;;;;20.45;13.57;;;;;;;3.46;57.03;95839.22;4236037;27;20411;-61
2023/02/14 06:13:32;;;;;;;19.40;14.45;;;;;;;3.51;57.38;95844.16;4246531;27;20079;-61
2023/02/14 06:15:35;;;;;;;24.10;14.18;;;;;;;3.39;57.89;95854.28;4247049;27;20047;-61
2023/02/14 06:17:37;;;;;;;17.92;12.85;;;;;;;3.39;57.90;95862.06;4240513;27;20123;-59
2023/02/14 06:19:38;;;;;;;23.95;13.95;;;;;;;3.51;57.33;95852.78;4243360;27;20074;-61
2023/02/14 06:21:40;;;;;;;26.27;15.05;;;;;;;3.50;57.42;95843.31;4240458;27;20043;-61
2023/02/14 06:23:42;;;;;;;22.20;15.27;;;;;;;3.46;57.17;95840.09;4244135;27;20054;-61
2023/02/14 06:25:43;;;;;;;22.95;15.00;;;;;;;3.44;57.56;95856.63;4241528;27;20467;-58
2023/02/14 06:27:45;;;;;;;24.00;15.93;;;;;;;3.47;58.72;95851.28;4239869;27;20142;-58
2023/02/14 06:29:49;;;;;;;20.70;14.20;;;;;;;3.57;57.81;95860.19;4240644;27;20912;-60
2023/02/14 06:31:51;;;;;;;25.58;14.48;;;;;;;3.40;58.01;95862.88;4246708;27;20402;-62
2023/02/14 06:33:53;;;;;;;22.02;13.95;;;;;;;3.52;57.80;95849.25;4242374;27;20055;-61
2023/02/14 06:35:54;;;;;;;21.48;15.45;;;;;;;3.61;57.34;95840.94;4238847;27;20387;-60
2023/02/14 06:37:56;;;;;;;23.77;15.88;;;;;;;3.59;57.43;95842.81;4245527;27;20043;-57
2023/02/14 06:39:58;;;;;;;25.75;16.35;;;;;;;3.60;57.62;95841.06;4239178;27;20082;-59
2023/02/14 06:41:59;;;;;;;22.35;14.82;;;;;;;3.65;56.91;95850.22;4239823;27;20453;-59
2023/02/14 06:44:01;;;;;;;23.50;15.82;;;;;;;3.66;57.62;95856.25;4240397;27;20077;-61
2023/02/14 06:46:03;;;;;;;24.58;14.80;;;;;;;3.65;58.01;95851.97;4246266;27;20047;-61
2023/02/14 06:48:05;;;;;;;26.63;16.10;;;;;;;3.69;57.13;95851.69;4240447;27;20047;-57
2023/02/14 06:50:07;;;;;;;23.08;14.63;;;;;;;3.63;57.71;95844.28;4241837;27;20175;-64
2023/02/14 06:52:08;;;;;;;26.65;15.80;;;;;;;3.72;58.22;95837.72;4242838;27;20047;-58
2023/02/14 06:54:10;;;;;;;26.13;14.13;;;;;;;3.75;57.88;95836.72;4246463;27;20039;-60
2023/02/14 06:56:12;;;;;;;23.98;15.13;;;;;;;3.86;57.10;95839.53;4242265;27;20062;-59
2023/02/14 06:58:14;;;;;;;22.70;13.98;;;;;;;3.74;57.58;95848.84;4237545;27;20073;-59
2023/02/14 07:00:16;;;;;;;26.63;14.90;;;;;;;3.77;57.37;95827.94;4244335;27;20098;-59
2023/02/14 07:02:17;;;;;;;20.52;13.13;;;;;;;3.80;57.73;95832.09;4237394;27;20055;-60
2023/02/14 07:04:19;;;;;;;23.63;15.07;;;;;;;3.86;57.79;95836.94;4230125;28;20483;-56
2023/02/14 07:06:21;;;;;;;22.27;13.75;;;;;;;3.90;57.77;95826.28;4243151;27;20078;-58
2023/02/14 07:08:22;;;;;;;24.50;15.80;;;;;;;3.87;57.63;95828.22;4246783;27;20046;-60
2023/02/14 07:10:26;;;;;;;;;;;;;;;3.95;57.87;95822.59;4246741;27;20614;-59
2023/02/14 07:12:28;;;;;;;18.27;12.85;;;;;;;4.01;58.36;95812.69;4243101;27;19946;-61
2023/02/14 07:14:29;;;;;;;22.23;13.73;;;;;;;3.93;58.07;95827.88;4243329;27;20043;-58
2023/02/14 07:16:31;;;;;;;21.20;13.68;;;;;;;3.84;58.34;95833.59;4240910;27;20044;-59
2023/02/14 07:18:33;;;;;;;22.85;14.80;;;;;;;3.90;58.39;95821.09;4236165;27;20422;-59
2023/02/14 07:20:34;;;;;;;22.05;14.93;;;;;;;3.94;58.24;95828.72;4235382;27;20079;-61
2023/02/14 07:22:37;;;;;;;23.08;13.55;;;;;;;3.91;58.59;95845.25;4235518;27;20498;-59
2023/02/14 07:24:39;;;;;;;21.90;13.90;;;;;;;3.88;58.62;95837.69;4236419;27;20043;-61
2023/02/14 07:26:40;;;;;;;21.70;14.35;;;;;;;3.81;59.15;95828.59;4235420;28;20411;-60
2023/02/14 07:28:47;;;;;;;27.88;16.13;;;;;;;3.83;59.57;95839.69;4232794;27;20043;-61
2023/02/14 07:30:49;;;;;;;21.90;14.88;;;;;;;3.78;59.81;95844.31;4246024;27;20043;-60
2023/02/14 07:32:50;;;;;;;24.58;15.05;;;;;;;3.48;60.55;95847.75;4244914;27;20411;-61
2023/02/14 07:34:52;;;;;;;24.60;14.85;;;;;;;3.44;61.14;95843.66;4237170;27;20055;-63
2023/02/14 07:36:54;;;;;;;23.40;15.02;;;;;;;3.47;61.35;95833.16;4240705;28;20383;-60
2023/02/14 07:38:56;;;;;;;28.83;16.30;;;;;;;3.53;61.73;95840.56;4246532;27;20051;-58
2023/02/14 07:40:57;;;;;;;23.80;14.38;;;;;;;3.35;62.07;95846.78;4235399;27;20178;-58
2023/02/14 07:43:00;;;;;;;22.83;14.68;;;;;;;3.20;63.09;95841.53;4245599;27;20082;-61
2023/02/14 07:45:03;;;;;;;25.30;14.65;;;;;;;3.37;63.01;95834.59;4236966;27;20073;-60
2023/02/14 07:47:21;;;;;;;23.77;14.88;;;;;;;3.50;62.66;95840.72;4230558;28;20058;-61
2023/02/14 07:49:23;;;;;;;24.77;15.40;;;;;;;3.56;62.46;95852.50;4238523;28;20690;-59
2023/02/14 07:51:24;;;;;;;25.60;15.25;;;;;;;3.45;62.56;95858.31;4237815;28;20111;-60
2023/02/14 07:53:26;;;;;;;24.75;14.75;;;;;;;3.37;63.09;95860.47;4245900;27;20047;-60
2023/02/14 07:55:27;;;;;;;24.90;15.23;;;;;;;3.31;63.76;95855.66;4245766;27;20051;-63
2023/02/14 07:57:29;;;;;;;25.15;15.13;;;;;;;3.04;64.74;95871.81;4245742;27;20475;-58
2023/02/14 07:59:31;;;;;;;30.73;16.45;;;;;;;2.85;65.86;95857.28;4245880;27;20078;-56
2023/02/14 08:01:32;;;;;;;25.00;15.40;;;;;;;2.98;65.65;95865.19;4246133;27;20062;-56
2023/02/14 08:03:34;;;;;;;32.00;16.65;;;;;;;3.07;65.54;95877.63;4244635;27;20096;-56
2023/02/14 08:05:36;;;;;;;23.73;14.73;;;;;;;3.15;65.15;95856.50;4242770;27;20047;-55
2023/02/14 08:07:38;;;;;;;25.48;15.20;;;;;;;3.22;65.33;95863.00;4236530;27;20560;-53
2023/02/14 08:09:39;;;;;;;27.30;15.77;;;;;;;3.15;64.94;95869.47;4242245;28;20105;-60
2023/02/14 08:14:02;;;;;;;28.23;15.73;;;;;;;3.14;65.06;95869.53;4237924;28;20051;-57
2023/02/14 08:16:04;;;;;;;27.58;16.35;;;;;;;3.08;65.38;95887.09;4245426;27;20075;-55
2023/02/14 08:18:06;;;;;;;26.52;16.00;;;;;;;3.17;65.39;95877.97;4244327;27;20043;-58
2023/02/14 08:20:08;;;;;;;29.08;15.70;;;;;;;3.18;65.36;95881.41;4245288;27;20047;-56
2023/02/14 08:22:10;;;;;;;24.40;14.52;;;;;;;3.20;65.25;95882.16;4236372;27;20096;-57
2023/02/14 08:24:11;;;;;;;26.42;14.40;;;;;;;3.23;64.63;95876.81;4241250;28;20043;-57
2023/02/14 08:26:13;;;;;;;25.80;14.02;;;;;;;3.28;64.37;95888.56;4230781;28;20043;-58
2023/02/14 08:28:16;;;;;;;35.50;15.15;;;;;;;3.30;64.38;95880.72;4229287;27;20103;-57
2023/02/14 08:30:17;;;;;;;27.33;15.38;;;;;;;3.33;64.06;95883.13;4239520;28;20050;-54
2023/02/14 08:32:19;;;;;;;20.63;13.63;;;;;;;3.41;64.41;95882.72;4245327;27;20477;-53
2023/02/14 08:34:21;;;;;;;21.02;13.25;;;;;;;3.17;64.83;95879.75;4249258;27;20467;-55
2023/02/14 08:36:23;;;;;;;26.30;13.68;;;;;;;2.93;65.75;95877.56;4248436;27;20112;-54
2023/02/14 08:38:24;;;;;;;23.27;13.52;;;;;;;2.87;66.55;95873.56;4238100;27;20140;-55
2023/02/14 08:40:27;;;;;;;23.75;13.45;;;;;;;3.01;66.01;95864.19;4237734;27;20105;-53
2023/02/14 08:42:28;;;;;;;19.85;12.23;;;;;;;3.00;66.08;95873.72;4244686;27;20054;-60
2023/02/14 08:44:30;;;;;;;20.40;11.82;;;;;;;3.14;65.92;95872.13;4237178;27;20043;-57
2023/02/14 08:46:32;;;;;;;23.23;13.35;;;;;;;3.11;65.88;95878.31;4249167;27;20043;-56
2023/02/14 08:48:34;;;;;;;23.08;12.27;;;;;;;3.18;65.94;95894.34;4247268;27;20495;-56
2023/02/14 08:50:39;;;;;;;22.95;12.15;;;;;;;2.87;66.40;95889.09;4247716;27;20057;-55
2023/02/14 08:52:44;;;;;;;23.70;12.40;;;;;;;2.89;67.02;95886.41;4248667;27;20490;-55
2023/02/14 08:54:46;;;;;;;21.80;13.13;;;;;;;2.91;67.22;95889.75;4247522;27;20043;-59
2023/02/14 08:56:48;;;;;;;27.00;13.45;;;;;;;2.89;67.17;95906.31;4248384;27;20134;-57
2023/02/14 08:58:53;;;;;;;27.70;14.52;;;;;;;2.90;67.16;95893.25;4246633;27;20047;-53
2023/02/14 09:00:55;;;;;;;25.38;14.40;;;;;;;2.93;67.08;95882.75;4248061;27;20104;-56
2023/02/14 09:02:57;;;;;;;23.90;13.07;;;;;;;3.04;66.96;95892.53;4248054;27;20607;-56
2023/02/14 09:04:58;;;;;;;27.00;13.88;;;;;;;3.12;66.94;95886.91;4244648;27;20409;-53
2023/02/14 09:07:00;;;;;;;23.88;13.52;;;;;;;3.01;66.55;95885.75;4234822;27;20043;-60
2023/02/14 09:09:02;;;;;;;25.17;13.02;;;;;;;3.04;66.83;95885.59;4248629;27;20134;-53
2023/02/14 09:11:13;;;;;;;24.52;13.02;;;;;;;3.01;66.92;95870.22;4248562;27;20496;-57
2023/02/14 09:13:15;;;;;;;24.73;13.10;;;;;;;3.17;66.62;95880.56;4247788;27;20089;-53
2023/02/14 09:15:17;;;;;;;20.35;12.98;;;;;;;3.21;66.25;95882.06;4248840;27;20442;-57
2023/02/14 09:17:18;;;;;;;23.13;13.60;;;;;;;3.29;66.48;95873.84;4236478;27;20138;-57
2023/02/14 09:19:20;;;;;;;21.65;12.98;;;;;;;3.33;65.73;95877.13;4231497;27;20059;-57
2023/02/14 09:21:24;;;;;;;24.60;11.80;;;;;;;3.41;65.63;95855.03;4233880;27;20108;-59
2023/02/14 09:23:26;;;;;;;20.98;12.25;;;;;;;3.46;65.04;95852.19;4247588;27;20134;-60
2023/02/14 09:25:28;;;;;;;20.10;11.50;;;;;;;3.46;65.28;95853.03;4238108;27;20050;-60
2023/02/14 09:27:30;;;;;;;20.60;12.23;;;;;;;3.33;64.95;95853.81;4243487;27;20568;-61
2023/02/14 09:29:33;;;;;;;22.23;13.02;;;;;;;3.27;65.41;95855.84;4235673;27;20368;-61
2023/02/14 09:31:34;;;;;;;19.20;12.15;;;;;;;3.46;64.80;95860.81;4247791;27;20051;-60
2023/02/14 09:33:36;;;;;;;29.00;14.15;;;;;;;3.55;64.42;95851.69;4247569;27;20479;-58
2023/02/14 09:35:38;;;;;;;21.67;13.43;;;;;;;3.48;64.89;95852.94;4247323;27;20104;-59
2023/02/14 09:40:00;;;;;;;24.52;14.95;;;;;;;3.64;64.40;95856.31;4243152;27;20096;-59
2023/02/14 09:42:20;;;;;;;22.63;13.07;;;;;;;3.76;63.43;95861.72;4230765;27;20055;-59
2023/02/14 09:44:33;;;;;;;25.85;13.80;;;;;;;3.54;63.74;95852.59;4234477;27;20047;-61
2023/02/14 09:46:41;;;;;;;27.90;15.60;;;;;;;3.41;64.67;95851.63;4247954;27;20043;-62
2023/02/14 09:48:46;;;;;;;26.52;14.73;;;;;;;3.26;65.15;95853.31;4247448;27;20744;-61
2023/02/14 09:50:50;;;;;;;31.50;15.88;;;;;;;3.22;64.96;95857.81;4232948;27;20046;-59
2023/02/14 09:52:56;;;;;;;25.17;14.77;;;;;;;3.34;64.60;95861.50;4243259;27;20096;-60
2023/02/14 09:55:00;;;;;;;28.85;15.88;;;;;;;3.34;64.85;95855.50;4246540;27;20078;-63
2023/02/14 09:57:26;;;;;;;28.83;14.95;;;;;;;3.45;64.23;95838.41;4231939;27;20051;-59
2023/02/14 09:59:46;;;;;;;30.27;14.95;;;;;;;3.61;63.77;95840.94;4238161;27;20117;-60